Time;durP1;ratioP1;P1;durP2;ratioP2;P2;SDS_P1;SDS_P2;PMS_P1;PMS_P2;Temp;Humidity;BMP_temperature;BMP_pressure;BME280_temperature;BME280_humidity;BME280_pressure;Samples;Min_cycle;Max_cycle;Signal;HPM_P1;HPM_P2
2022/02/08 00:00:59;;;;;;;5.42;2.60;;;;;;;-0.43;75.57;97308.94;1668714;84;21139;-75
2022/02/08 00:03:25;;;;;;;5.80;2.37;;;;;;;-0.41;75.97;97319.79;1694455;85;21408;-75
2022/02/08 00:06:21;;;;;;;4.47;2.08;;;;;;;-0.37;75.19;97325.02;1694541;85;21030;-75
2022/02/08 00:08:33;;;;;;;4.85;2.50;;;;;;;-0.36;75.79;97329.35;1701432;83;20988;-76
2022/02/08 00:11:00;;;;;;;5.67;2.40;;;;;;;-0.33;75.95;97330.22;1723319;83;21063;-76
2022/02/08 00:13:27;;;;;;;4.90;2.55;;;;;;;-0.30;75.87;97335.88;1723517;83;20992;-75
2022/02/08 00:15:53;;;;;;;8.93;2.67;;;;;;;-0.32;76.13;97339.80;1725698;83;20988;-76
2022/02/08 00:18:20;;;;;;;3.33;2.20;;;;;;;-0.29;76.27;97345.00;1689151;85;21060;-76
2022/02/08 00:20:46;;;;;;;3.30;2.10;;;;;;;-0.25;75.70;97355.44;1726292;83;21528;-76
2022/02/08 00:23:13;;;;;;;4.92;2.47;;;;;;;-0.26;75.95;97357.16;1689400;84;21041;-76
2022/02/08 00:25:40;;;;;;;4.10;2.15;;;;;;;-0.24;75.55;97358.05;1726200;83;21270;-76
2022/02/08 00:28:06;;;;;;;4.83;2.40;;;;;;;-0.22;74.60;97361.52;1726341;83;21414;-76
2022/02/08 00:30:33;;;;;;;5.47;2.25;;;;;;;-0.25;75.24;97356.28;1689318;85;21383;-75
2022/02/08 00:32:59;;;;;;;7.85;2.42;;;;;;;-0.23;74.91;97368.90;1726591;83;20965;-76
2022/02/08 00:35:26;;;;;;;9.23;2.75;;;;;;;-0.25;75.18;97370.61;1689241;85;21391;-75
2022/02/08 00:37:52;;;;;;;6.45;3.10;;;;;;;-0.30;75.04;97371.03;1726269;83;21087;-75
2022/02/08 00:40:20;;;;;;;5.95;2.30;;;;;;;-0.28;75.32;97382.34;1726653;83;21072;-75
2022/02/08 00:42:48;;;;;;;8.38;2.52;;;;;;;-0.30;75.53;97377.12;1726384;83;21024;-75
2022/02/08 00:45:30;;;;;;;3.58;2.30;;;;;;;-0.30;75.48;97377.12;1689858;84;21459;-75
2022/02/08 00:47:53;;;;;;;5.92;2.27;;;;;;;-0.27;74.95;97388.86;1676159;85;21060;-75
2022/02/08 00:50:15;;;;;;;3.65;2.25;;;;;;;-0.25;75.41;97384.94;1689319;84;21093;-76
2022/02/08 00:52:41;;;;;;;9.68;2.67;;;;;;;-0.25;75.06;97379.72;1689912;85;21063;-75
2022/02/08 00:55:12;;;;;;;7.15;2.50;;;;;;;-0.24;75.17;97383.21;1689862;85;21016;-75
2022/02/08 00:57:39;;;;;;;4.62;2.67;;;;;;;-0.26;75.33;97389.71;1689859;84;21029;-75
2022/02/08 01:00:09;;;;;;;6.15;2.60;;;;;;;-0.28;75.58;97395.36;1690004;84;21438;-75
2022/02/08 01:02:36;;;;;;;5.15;2.08;;;;;;;-0.31;75.67;97400.13;1675977;85;21013;-75
2022/02/08 01:05:06;;;;;;;5.67;2.95;;;;;;;-0.36;75.92;97405.75;1689790;84;21545;-75
2022/02/08 01:07:32;;;;;;;5.30;2.85;;;;;;;-0.37;75.92;97418.33;1690330;85;21427;-75
2022/02/08 01:10:01;;;;;;;7.83;3.05;;;;;;;-0.39;75.90;97416.13;1689695;85;21021;-75
2022/02/08 01:12:32;;;;;;;8.00;2.70;;;;;;;-0.40;75.81;97409.19;1689884;85;21071;-75
2022/02/08 01:15:00;;;;;;;8.70;2.60;;;;;;;-0.40;75.97;97420.45;1682384;84;20988;-75
2022/02/08 01:17:28;;;;;;;7.75;2.92;;;;;;;-0.43;76.04;97419.16;1697411;84;21054;-75
2022/02/08 01:22:23;;;;;;;6.35;2.67;;;;;;;-0.43;76.34;97425.67;1697736;84;21097;-75
2022/02/08 01:24:51;;;;;;;5.37;2.70;;;;;;;-0.44;76.53;97427.84;1696948;84;21640;-75
2022/02/08 01:27:24;;;;;;;7.15;2.70;;;;;;;-0.41;76.53;97432.19;1697342;84;21046;-75
2022/02/08 01:43:19;;;;;;;7.72;3.05;;;;;;;-0.56;76.88;97449.47;1697646;84;20991;-75
2022/02/08 01:48:07;;;;;;;5.90;2.80;;;;;;;-0.63;76.92;97463.73;1716702;84;21081;-75
2022/02/08 01:50:32;;;;;;;5.20;2.62;;;;;;;-0.63;76.92;97474.14;1716112;84;21041;-75
2022/02/08 01:52:58;;;;;;;5.85;3.10;;;;;;;-0.67;76.89;97483.64;1716593;84;21026;-75
2022/02/08 01:55:27;;;;;;;7.25;3.20;;;;;;;-0.67;77.00;97483.64;1716454;84;21042;-75
2022/02/08 01:57:53;;;;;;;6.37;3.15;;;;;;;-0.67;76.82;97488.84;1692378;84;21058;-75
2022/02/08 02:00:21;;;;;;;7.97;3.12;;;;;;;-0.66;77.08;97486.70;1716836;84;21012;-75
2022/02/08 02:02:48;;;;;;;6.20;2.70;;;;;;;-0.65;76.79;97490.16;1716747;84;21018;-75
2022/02/08 02:05:17;;;;;;;6.03;2.98;;;;;;;-0.65;76.75;97494.06;1716133;84;21518;-75
2022/02/08 02:07:48;;;;;;;5.90;3.20;;;;;;;-0.65;76.97;97496.25;1716687;84;21026;-75
2022/02/08 02:10:18;;;;;;;8.38;3.30;;;;;;;-0.66;76.91;97494.52;1716876;84;21037;-75
2022/02/08 02:12:59;;;;;;;5.78;3.15;;;;;;;-0.68;76.98;97505.33;1716688;84;21057;-75
2022/02/08 02:15:29;;;;;;;4.92;3.08;;;;;;;-0.72;77.02;97500.53;1727002;83;21082;-75
2022/02/08 02:17:56;;;;;;;6.62;3.10;;;;;;;-0.80;77.23;97499.59;1733674;83;21027;-75
2022/02/08 02:20:24;;;;;;;6.00;3.00;;;;;;;-0.86;77.51;97503.05;1733637;83;21032;-75
2022/02/08 02:22:51;;;;;;;6.83;3.45;;;;;;;-0.90;77.92;97505.59;1733748;83;21504;-75
2022/02/08 02:25:31;;;;;;;7.33;3.50;;;;;;;-0.89;78.07;97507.33;1733895;83;21047;-75
2022/02/08 02:28:02;;;;;;;6.90;3.65;;;;;;;-0.86;77.92;97508.66;1733582;83;21035;-75
2022/02/08 02:30:32;;;;;;;5.30;3.10;;;;;;;-0.79;77.79;97507.84;1733706;83;21436;-75
2022/02/08 02:33:02;;;;;;;7.70;3.47;;;;;;;-0.81;77.82;97509.16;1733860;83;21035;-75
2022/02/08 02:35:30;;;;;;;12.03;4.75;;;;;;;-0.79;77.91;97509.14;1733646;83;21008;-74
2022/02/08 02:37:59;;;;;;;6.87;3.25;;;;;;;-0.77;78.01;97509.16;1733692;83;21036;-75
2022/02/08 02:40:30;;;;;;;6.33;3.35;;;;;;;-0.75;78.10;97509.61;1733580;83;21043;-75
2022/02/08 02:42:57;;;;;;;5.50;3.33;;;;;;;-0.76;78.34;97515.68;1733776;83;21067;-75
2022/02/08 02:45:24;;;;;;;9.40;3.62;;;;;;;-0.82;78.10;97515.19;1723286;83;21040;-75
2022/02/08 02:47:53;;;;;;;9.20;3.45;;;;;;;-0.88;78.55;97515.15;1723651;83;21489;-75
2022/02/08 02:50:24;;;;;;;7.33;3.42;;;;;;;-0.91;78.44;97521.64;1723502;83;21047;-75
2022/02/08 02:52:51;;;;;;;6.55;3.40;;;;;;;-0.98;78.97;97519.42;1723654;83;21019;-75
2022/02/08 02:55:18;;;;;;;7.12;3.33;;;;;;;-0.98;78.87;97534.14;1723599;83;21023;-75
2022/02/08 02:57:51;;;;;;;11.10;3.37;;;;;;;-1.01;78.84;97529.78;1723690;83;21470;-75
2022/02/08 03:00:35;;;;;;;7.17;3.40;;;;;;;-1.00;78.95;97534.13;1723652;83;21446;-74
2022/02/08 03:03:04;;;;;;;7.30;3.50;;;;;;;-1.02;79.55;97538.87;1722627;81;21060;-74
2022/02/08 03:05:35;;;;;;;6.95;3.35;;;;;;;-1.07;79.00;97542.30;1722427;83;21111;-75
2022/02/08 03:18:53;;;;;;;6.67;3.08;;;;;;;-0.95;79.25;97575.36;1686654;85;21004;-75
2022/02/08 03:21:19;;;;;;;5.90;3.05;;;;;;;-0.88;79.44;97591.05;1668661;85;21024;-75
2022/02/08 03:23:46;;;;;;;5.55;3.42;;;;;;;-0.83;79.29;97592.81;1686508;85;20977;-75
2022/02/08 03:26:13;;;;;;;8.10;3.90;;;;;;;-0.81;79.40;97591.53;1686563;85;21481;-75
2022/02/08 03:28:42;;;;;;;8.13;3.33;;;;;;;-0.77;79.29;97597.63;1686107;83;21044;-74
2022/02/08 03:31:10;;;;;;;6.70;3.02;;;;;;;-0.70;79.28;97595.55;1686105;85;21065;-74
2022/02/08 03:33:37;;;;;;;7.72;3.98;;;;;;;-0.68;79.38;97602.50;1686618;85;21028;-75
2022/02/08 03:36:06;;;;;;;7.62;4.08;;;;;;;-0.61;79.34;97608.64;1686263;85;21009;-74
2022/02/08 03:38:42;;;;;;;6.97;3.30;;;;;;;-0.61;79.42;97612.55;1686522;85;21001;-75
2022/02/08 03:41:08;;;;;;;7.72;3.10;;;;;;;-0.62;79.34;97613.38;1650651;86;21483;-75
2022/02/08 03:43:37;;;;;;;8.53;3.58;;;;;;;-0.57;79.05;97609.53;1686613;85;21009;-75
2022/02/08 03:46:07;;;;;;;5.85;2.60;;;;;;;-0.51;78.82;97615.23;1695941;85;21068;-75
2022/02/08 03:48:35;;;;;;;6.78;2.80;;;;;;;-0.49;78.80;97628.70;1695825;85;21024;-74
2022/02/08 03:51:14;;;;;;;5.50;3.17;;;;;;;-0.47;78.74;97629.58;1695971;85;21060;-75
2022/02/08 03:53:45;;;;;;;6.53;3.55;;;;;;;-0.50;78.92;97637.34;1695565;85;21008;-75
2022/02/08 03:56:15;;;;;;;8.68;3.42;;;;;;;-0.49;78.85;97650.83;1695974;85;21028;-75
2022/02/08 03:58:42;;;;;;;9.20;3.25;;;;;;;-0.49;78.75;97653.44;1670318;85;21044;-75
2022/02/08 04:06:16;;;;;;;7.92;3.37;;;;;;;-0.49;78.74;97660.36;1640771;86;21030;-75
2022/02/08 04:08:42;;;;;;;7.95;3.47;;;;;;;-0.56;78.75;97662.91;1640651;87;21069;-75
2022/02/08 04:11:09;;;;;;;8.13;3.20;;;;;;;-0.56;78.69;97662.03;1640634;87;21073;-74
2022/02/08 04:13:55;;;;;;;6.83;3.33;;;;;;;-0.58;78.66;97665.06;1640563;87;21030;-75
2022/02/08 04:16:30;;;;;;;;;;;;;;;-0.59;78.61;97673.28;1675300;86;21495;-74
2022/02/08 04:18:58;;;;;;;6.45;3.60;;;;;;;-0.56;78.56;97678.95;1674450;86;20094;-75
2022/02/08 04:43:04;;;;;;;9.70;3.37;;;;;;;-0.43;77.89;97717.27;1676123;86;21504;-76
2022/02/08 04:45:29;;;;;;;6.67;3.42;;;;;;;-0.36;77.63;97734.25;1660239;86;21491;-76
2022/02/08 04:50:18;;;;;;;7.40;3.70;;;;;;;-0.28;77.38;97740.41;1595386;86;21073;-76
2022/02/08 04:52:43;;;;;;;6.83;3.27;;;;;;;-0.25;77.41;97750.84;1660539;86;21016;-75
2022/02/08 04:58:07;;;;;;;8.88;3.30;;;;;;;-0.18;77.15;97750.47;1660774;86;21443;-76
2022/02/08 05:00:30;;;;;;;10.30;3.35;;;;;;;-0.15;77.08;97753.12;1658010;86;21069;-74
2022/02/08 05:35:45;;;;;;;7.15;2.90;;;;;;;-0.14;76.71;97840.82;1660236;86;21084;-75
2022/02/08 05:41:34;;;;;;;;;;;;;;;-0.10;76.93;97841.30;1662751;86;21088;-75
2022/02/08 05:43:38;;;;;;;6.65;3.35;;;;;;;-0.06;76.90;97843.09;1655999;86;20339;-75
2022/02/08 05:48:24;;;;;;;8.30;3.33;;;;;;;-0.06;76.64;97850.02;1633973;84;21009;-75
2022/02/08 05:50:58;;;;;;;7.67;3.22;;;;;;;-0.05;76.32;97861.77;1684490;84;21070;-74
2022/02/08 05:53:42;;;;;;;6.25;3.00;;;;;;;-0.03;76.40;97865.25;1689843;84;21041;-75
2022/02/08 05:55:59;;;;;;;6.97;3.60;;;;;;;-0.02;76.57;97872.23;1697446;84;21009;-75
2022/02/08 05:58:26;;;;;;;6.10;3.25;;;;;;;0.02;76.80;97874.84;1724650;83;21064;-75
2022/02/08 06:00:53;;;;;;;13.35;3.85;;;;;;;0.01;76.73;97883.53;1713796;83;20957;-75
2022/02/08 06:03:25;;;;;;;9.80;3.70;;;;;;;-0.02;76.41;97888.28;1708871;83;21112;-75
2022/02/08 06:05:53;;;;;;;7.65;2.87;;;;;;;-0.01;76.32;97882.20;1713033;83;21481;-75
2022/02/08 06:08:20;;;;;;;8.38;3.27;;;;;;;-0.02;76.48;97876.55;1713424;83;21004;-75
2022/02/08 06:10:50;;;;;;;10.50;2.87;;;;;;;-0.04;76.22;97886.09;1697345;84;21076;-76
2022/02/08 06:13:16;;;;;;;7.80;2.87;;;;;;;-0.06;76.28;97896.91;1697147;84;21029;-75
2022/02/08 06:15:45;;;;;;;9.80;2.75;;;;;;;-0.14;76.28;97901.62;1720105;83;20968;-75
2022/02/08 06:18:12;;;;;;;13.35;4.97;;;;;;;-0.16;76.03;97908.52;1724711;83;21075;-75
2022/02/08 06:20:39;;;;;;;13.10;3.77;;;;;;;-0.18;76.03;97909.36;1712098;83;21386;-75
2022/02/08 06:23:06;;;;;;;7.97;2.87;;;;;;;-0.26;76.07;97910.58;1705885;83;21021;-75
2022/02/08 06:25:33;;;;;;;7.83;3.67;;;;;;;-0.31;76.05;97918.77;1697495;84;21052;-77
2022/02/08 06:28:02;;;;;;;8.80;3.25;;;;;;;-0.35;76.25;97914.36;1697491;84;20974;-75
2022/02/08 06:30:30;;;;;;;9.08;2.98;;;;;;;-0.41;76.31;97917.34;1701372;83;21027;-75
2022/02/08 06:32:57;;;;;;;8.68;3.33;;;;;;;-0.40;76.36;97924.73;1716410;83;20941;-75
2022/02/08 06:35:25;;;;;;;10.15;3.08;;;;;;;-0.38;76.44;97924.31;1725339;83;21045;-75
2022/02/08 06:37:52;;;;;;;7.15;3.20;;;;;;;-0.36;76.44;97923.92;1699068;83;21025;-75
2022/02/08 06:40:19;;;;;;;10.93;2.90;;;;;;;-0.37;76.33;97929.99;1699711;83;21005;-75
2022/02/08 06:42:46;;;;;;;10.80;3.37;;;;;;;-0.42;75.93;97936.42;1710653;83;21406;-75
2022/02/08 06:45:19;;;;;;;8.93;3.05;;;;;;;-0.41;75.91;97939.91;1697441;83;21064;-75
2022/02/08 06:47:50;;;;;;;9.58;3.35;;;;;;;-0.43;76.29;97947.70;1696334;84;21496;-75
2022/02/08 06:50:13;;;;;;;9.68;3.85;;;;;;;-0.43;76.30;97946.40;1694482;84;21044;-77
2022/02/08 06:52:41;;;;;;;7.90;3.08;;;;;;;-0.42;76.42;97949.45;1661526;86;21005;-77
2022/02/08 06:55:09;;;;;;;8.78;3.20;;;;;;;-0.45;76.33;97951.14;1674871;84;21360;-79
2022/02/08 06:57:59;;;;;;;9.73;3.50;;;;;;;-0.40;76.39;97959.89;1697142;84;21026;-75
2022/02/08 07:00:22;;;;;;;6.10;2.60;;;;;;;-0.40;76.52;97967.70;1680834;84;20993;-74
2022/02/08 07:02:50;;;;;;;9.25;4.10;;;;;;;-0.40;76.73;97970.30;1695908;84;21014;-74
2022/02/08 07:05:18;;;;;;;11.12;3.20;;;;;;;-0.37;76.45;97970.77;1697246;84;21068;-73
2022/02/08 07:07:45;;;;;;;4.67;2.92;;;;;;;-0.37;76.55;97975.56;1697067;84;21005;-73
2022/02/08 07:10:12;;;;;;;9.15;3.10;;;;;;;-0.34;76.54;97973.43;1697200;84;21474;-73
2022/02/08 07:12:40;;;;;;;9.03;3.47;;;;;;;-0.31;76.18;97994.28;1697366;84;20966;-73
2022/02/08 07:15:13;;;;;;;12.55;3.33;;;;;;;-0.30;76.34;97990.82;1697290;84;21061;-73
2022/02/08 07:17:37;;;;;;;11.93;3.75;;;;;;;-0.25;75.77;97997.41;1696880;84;21069;-73
2022/02/08 07:20:06;;;;;;;9.33;3.30;;;;;;;-0.23;75.85;97990.48;1697212;84;21053;-73
2022/02/08 07:22:33;;;;;;;8.73;3.10;;;;;;;-0.18;75.15;97998.81;1697129;84;21438;-74
2022/02/08 07:25:00;;;;;;;9.48;2.95;;;;;;;-0.12;75.45;98003.66;1697124;84;21021;-74
2022/02/08 07:27:27;;;;;;;12.73;3.00;;;;;;;-0.11;75.00;97998.47;1697061;84;21093;-74
2022/02/08 07:29:55;;;;;;;9.63;3.35;;;;;;;-0.04;75.26;97992.48;1697171;84;20974;-74
2022/02/08 07:32:37;;;;;;;10.68;3.10;;;;;;;0.00;74.59;97998.63;1697169;84;21077;-74
2022/02/08 07:35:30;;;;;;;10.30;3.27;;;;;;;0.05;74.81;97993.45;1697338;84;20974;-74
2022/02/08 07:38:03;;;;;;;6.37;2.22;;;;;;;0.14;73.63;98001.39;1696196;84;21535;-73
2022/02/08 07:42:54;;;;;;;27.80;11.55;;;;;;;0.36;74.14;97996.00;1661139;84;21010;-73
2022/02/08 07:45:23;;;;;;;12.53;3.87;;;;;;;0.54;73.90;98010.53;1700263;83;21036;-73
2022/02/08 07:47:51;;;;;;;10.63;3.15;;;;;;;0.70;73.24;98007.66;1714634;84;21390;-73
2022/02/08 07:50:20;;;;;;;12.30;3.30;;;;;;;0.88;73.32;98012.19;1714549;84;21017;-73
2022/02/08 07:52:52;;;;;;;10.05;3.08;;;;;;;1.08;71.62;98005.81;1714277;84;21489;-73
2022/02/08 07:55:20;;;;;;;8.85;2.58;;;;;;;1.22;70.19;98022.03;1714694;83;20996;-73
2022/02/08 07:57:48;;;;;;;9.60;3.37;;;;;;;1.35;70.33;98024.31;1714427;84;21044;-74
2022/02/08 08:00:16;;;;;;;8.35;2.62;;;;;;;1.42;69.94;98035.27;1714619;83;21053;-74
2022/02/08 08:02:44;;;;;;;12.65;3.55;;;;;;;1.46;70.17;98038.35;1714673;83;21103;-73
2022/02/08 08:05:11;;;;;;;8.23;2.62;;;;;;;1.50;69.97;98027.03;1704743;84;20999;-73
2022/02/08 08:07:38;;;;;;;9.18;2.87;;;;;;;1.51;69.05;98035.76;1710348;84;21128;-74
2022/02/08 08:10:06;;;;;;;6.10;2.50;;;;;;;1.36;67.93;98041.75;1688088;84;21088;-73
2022/02/08 08:12:37;;;;;;;13.45;3.00;;;;;;;1.43;68.99;98046.15;1685627;84;21007;-74
2022/02/08 08:15:22;;;;;;;10.72;2.83;;;;;;;1.35;68.59;98050.01;1673930;85;21007;-74
2022/02/08 08:17:54;;;;;;;8.13;3.40;;;;;;;1.34;69.15;98046.07;1672235;84;21066;-74
2022/02/08 08:20:08;;;;;;;15.68;5.80;;;;;;;1.39;69.36;98049.17;1682959;84;21029;-74
2022/02/08 08:22:34;;;;;;;10.05;3.10;;;;;;;1.44;69.67;98049.20;1673822;85;20962;-75
2022/02/08 08:25:03;;;;;;;4.45;2.33;;;;;;;1.51;69.96;98060.58;1660072;86;21538;-74
2022/02/08 08:27:30;;;;;;;12.25;3.25;;;;;;;1.52;69.33;98057.09;1675568;85;21459;-73
2022/02/08 08:29:56;;;;;;;27.52;12.85;;;;;;;1.55;69.15;98061.94;1674426;84;21045;-74
2022/02/08 08:32:23;;;;;;;11.22;3.15;;;;;;;1.58;69.73;98062.39;1672259;86;21005;-74
2022/02/08 08:34:50;;;;;;;13.22;3.98;;;;;;;1.61;69.41;98071.53;1691693;83;21010;-75
2022/02/08 08:37:19;;;;;;;10.32;3.17;;;;;;;1.62;69.11;98074.58;1712664;83;21415;-74
2022/02/08 08:39:49;;;;;;;10.98;3.17;;;;;;;1.64;69.58;98079.83;1687690;84;20953;-74
2022/02/08 08:52:36;;;;;;;11.80;3.08;;;;;;;1.54;68.96;98080.20;1673628;84;21030;-74
2022/02/08 08:54:58;;;;;;;10.20;3.30;;;;;;;1.52;69.09;98082.80;1688944;84;21005;-75
2022/02/08 08:57:27;;;;;;;13.03;3.05;;;;;;;1.56;69.45;98095.44;1681524;84;20993;-75
2022/02/08 08:59:55;;;;;;;10.18;2.87;;;;;;;1.58;69.33;98105.48;1701061;84;21017;-75
2022/02/08 09:02:22;;;;;;;8.20;3.10;;;;;;;1.63;69.20;98095.06;1631421;85;21029;-75
2022/02/08 09:04:51;;;;;;;9.90;3.00;;;;;;;1.66;69.71;98090.73;1644238;87;21071;-74
2022/02/08 09:07:17;;;;;;;37.63;15.93;;;;;;;1.74;69.75;98100.38;1687729;84;21509;-75
2022/02/08 09:09:47;;;;;;;25.80;9.35;;;;;;;1.80;69.74;98109.14;1681088;84;20969;-75
2022/02/08 09:25:37;;;;;;;10.58;3.58;;;;;;;2.05;69.71;98124.11;1682606;84;20982;-74
2022/02/08 09:30:16;;;;;;;9.75;3.33;;;;;;;2.11;69.51;98133.30;1689676;84;21395;-73
2022/02/08 09:33:02;;;;;;;10.32;2.55;;;;;;;2.11;69.11;98133.30;1680799;84;20973;-73
2022/02/08 09:35:11;;;;;;;11.35;3.30;;;;;;;2.06;69.46;98134.59;1681681;84;21051;-73
2022/02/08 09:37:39;;;;;;;10.98;3.05;;;;;;;2.00;69.11;98142.81;1678076;84;21044;-73
2022/02/08 09:40:08;;;;;;;9.30;3.35;;;;;;;1.85;69.12;98144.45;1693751;84;21109;-74
2022/02/08 09:42:39;;;;;;;10.23;2.95;;;;;;;1.71;69.84;98153.04;1694756;84;20995;-74
2022/02/08 09:45:06;;;;;;;7.80;2.60;;;;;;;1.58;70.01;98158.59;1680148;85;21049;-74
2022/02/08 09:47:53;;;;;;;11.97;3.15;;;;;;;1.59;69.97;98149.03;1677181;84;21549;-74
2022/02/08 09:50:20;;;;;;;11.85;3.27;;;;;;;1.52;70.30;98145.48;1695295;83;21433;-74
2022/02/08 09:52:50;;;;;;;9.93;3.02;;;;;;;1.48;70.50;98151.53;1715893;83;21151;-74
2022/02/08 09:55:19;;;;;;;;;;;;;;;1.37;71.17;98150.56;1713698;83;21476;-74
2022/02/08 09:57:50;;;;;;;12.50;3.77;;;;;;;1.37;71.76;98144.03;1691449;83;20136;-74
2022/02/08 10:00:23;;;;;;;8.23;3.67;;;;;;;1.36;72.10;98143.15;1718305;83;21387;-75
2022/02/08 10:02:51;;;;;;;12.35;3.17;;;;;;;1.29;72.63;98159.62;1691794;83;21036;-74
2022/02/08 10:05:18;;;;;;;13.30;3.08;;;;;;;1.33;72.20;98152.28;1688921;85;21044;-75
2022/02/08 10:07:48;;;;;;;12.37;2.85;;;;;;;1.31;72.53;98161.39;1674999;85;21033;-74
2022/02/08 10:10:26;;;;;;;10.60;3.27;;;;;;;1.17;73.42;98158.62;1695845;83;20985;-74
2022/02/08 10:23:27;;;;;;;10.15;3.02;;;;;;;1.37;72.62;98143.59;1707599;83;21044;-73
2022/02/08 10:26:09;;;;;;;11.20;3.45;;;;;;;1.44;72.69;98155.86;1698358;83;21443;-73
2022/02/08 10:28:54;;;;;;;10.03;3.00;;;;;;;1.39;72.56;98151.03;1677358;83;21008;-73
2022/02/08 10:39:06;;;;;;;10.05;2.80;;;;;;;1.47;72.44;98162.85;1689518;83;20980;-73
2022/02/08 10:41:34;;;;;;;8.38;3.12;;;;;;;1.42;72.47;98168.02;1677847;85;21051;-74
2022/02/08 10:44:05;;;;;;;13.10;3.42;;;;;;;1.41;72.56;98159.73;1712136;83;21032;-75
2022/02/08 10:46:35;;;;;;;10.85;4.15;;;;;;;1.41;72.86;98152.35;1722380;81;21068;-75
2022/02/08 10:49:14;;;;;;;9.65;2.98;;;;;;;1.51;72.66;98154.19;1702382;83;21014;-74
2022/02/08 10:51:51;;;;;;;14.47;3.42;;;;;;;1.53;72.31;98152.91;1741474;82;21031;-75
2022/02/08 10:54:50;;;;;;;8.48;2.77;;;;;;;1.60;72.22;98150.77;1723622;82;21036;-79
2022/02/08 10:56:59;;;;;;;10.48;3.20;;;;;;;1.61;72.26;98153.83;1734312;82;21744;-78
2022/02/08 10:59:26;;;;;;;9.10;3.20;;;;;;;1.63;72.04;98153.84;1714553;83;20993;-78
2022/02/08 11:02:05;;;;;;;10.90;3.83;;;;;;;1.69;72.19;98151.28;1703342;82;20993;-78
2022/02/08 11:04:53;;;;;;;12.03;4.25;;;;;;;1.79;72.68;98155.72;1718879;82;20960;-78
2022/02/08 11:07:32;;;;;;;10.53;3.42;;;;;;;1.87;72.19;98161.45;1699628;83;21016;-77
2022/02/08 11:10:17;;;;;;;7.92;3.37;;;;;;;1.90;71.76;98149.28;1705479;83;21466;-78
2022/02/08 11:12:58;;;;;;;10.60;3.20;;;;;;;1.94;71.78;98161.51;1702292;82;20988;-78
2022/02/08 11:15:28;;;;;;;7.17;3.30;;;;;;;2.03;70.68;98154.61;1708749;81;21047;-88
2022/02/08 11:18:14;;;;;;;6.97;3.75;;;;;;;1.98;69.10;98155.45;1705960;83;21008;-87
2022/02/08 11:20:35;;;;;;;9.18;3.17;;;;;;;2.09;70.71;98152.92;1714660;82;21011;-86
2022/02/08 11:23:05;;;;;;;10.48;2.75;;;;;;;2.22;69.85;98151.68;1722993;82;21000;-85
2022/02/08 11:25:39;;;;;;;7.22;3.25;;;;;;;2.32;68.77;98149.56;1707085;82;21337;-83
2022/02/08 11:28:16;;;;;;;10.58;4.42;;;;;;;2.35;67.99;98150.90;1706708;83;21079;-85
2022/02/08 11:30:53;;;;;;;7.40;3.02;;;;;;;2.44;69.06;98155.72;1713888;82;21065;-86
2022/02/08 11:50:08;;;;;;;9.65;3.45;;;;;;;3.72;67.39;98147.83;1694992;84;21004;-82
2022/02/08 11:52:35;;;;;;;7.45;2.98;;;;;;;4.00;65.75;98137.77;1691887;84;21077;-82
2022/02/08 11:55:16;;;;;;;8.28;2.95;;;;;;;4.17;63.75;98135.13;1689754;84;21001;-82
2022/02/08 12:05:24;;;;;;;7.85;3.00;;;;;;;4.31;64.25;98132.05;1689707;84;21013;-81
2022/02/08 12:07:47;;;;;;;7.47;3.02;;;;;;;4.17;61.50;98131.20;1683024;84;21036;-81
2022/02/08 12:10:28;;;;;;;7.00;2.98;;;;;;;4.06;63.28;98128.16;1708344;84;20985;-81
2022/02/08 12:28:14;;;;;;;5.83;2.37;;;;;;;3.00;64.03;98151.61;1652877;87;21019;-82
2022/02/08 12:30:29;;;;;;;24.95;10.40;;;;;;;2.86;64.42;98155.95;1652519;87;21083;-82
2022/02/08 12:35:35;;;;;;;9.08;3.05;;;;;;;2.72;64.87;98159.80;1696191;85;21013;-82
2022/02/08 12:49:56;;;;;;;11.70;3.08;;;;;;;2.42;66.41;98173.16;1700866;84;21029;-81
2022/02/08 12:57:43;;;;;;;8.38;3.02;;;;;;;3.08;66.24;98152.97;1696201;84;21028;-81
2022/02/08 13:32:12;;;;;;;5.45;3.25;;;;;;;4.29;60.89;98146.05;1680600;84;21002;-81
2022/02/08 14:19:05;;;;;;;9.83;3.42;;;;;;;3.24;65.03;98189.69;1696150;85;21064;-81
2022/02/08 15:09:55;;;;;;;35.85;15.05;;;;;;;2.28;64.88;98235.85;1714654;82;20993;-82
2022/02/08 15:12:26;;;;;;;11.63;3.25;;;;;;;2.20;64.89;98225.33;1707785;83;21114;-82
2022/02/08 15:15:14;;;;;;;7.67;2.65;;;;;;;2.08;64.85;98231.34;1715566;82;20989;-83
2022/02/08 15:17:25;;;;;;;5.62;2.55;;;;;;;2.00;65.20;98233.89;1709064;82;21097;-83
2022/02/08 15:19:53;;;;;;;9.98;2.92;;;;;;;1.95;65.38;98237.75;1715251;83;21076;-82
2022/02/08 15:22:20;;;;;;;7.80;3.42;;;;;;;1.90;65.48;98229.41;1715640;83;20996;-82
2022/02/08 15:24:47;;;;;;;6.97;2.90;;;;;;;1.81;65.71;98246.78;1723893;82;21007;-82
2022/02/08 15:27:15;;;;;;;5.17;2.35;;;;;;;1.80;65.76;98233.70;1706648;83;20992;-82
2022/02/08 15:29:43;;;;;;;5.12;2.72;;;;;;;1.77;65.92;98246.30;1700956;83;20949;-82
2022/02/08 15:32:15;;;;;;;7.30;3.00;;;;;;;1.76;66.06;98247.17;1696187;83;20989;-81
2022/02/08 15:34:47;;;;;;;7.00;2.75;;;;;;;1.75;66.10;98250.66;1703355;82;21028;-81
2022/02/08 15:37:12;;;;;;;9.78;3.77;;;;;;;1.73;65.99;98254.11;1702022;83;21000;-81
2022/02/08 15:39:39;;;;;;;14.38;5.00;;;;;;;1.72;66.15;98264.98;1705925;82;21436;-81
2022/02/08 15:42:05;;;;;;;7.78;2.50;;;;;;;1.70;66.11;98260.15;1705934;83;21012;-81
2022/02/08 15:44:34;;;;;;;5.08;2.42;;;;;;;1.72;65.94;98264.98;1713557;83;21044;-82
2022/02/08 15:47:08;;;;;;;11.90;3.47;;;;;;;1.71;65.90;98255.39;1716574;82;20988;-82
2022/02/08 15:49:39;;;;;;;7.03;2.77;;;;;;;1.71;66.10;98265.39;1709782;82;21048;-83
2022/02/08 15:54:40;;;;;;;;;;;;;;;1.63;66.00;98277.53;1707753;82;21043;-82
2022/02/08 16:05:19;;;;;;;5.55;2.45;;;;;;;1.41;65.87;98283.80;1701515;83;21080;-82
2022/02/08 16:07:46;;;;;;;7.22;2.95;;;;;;;1.34;66.21;98286.31;1707566;83;21002;-82
2022/02/08 16:10:09;;;;;;;8.38;2.95;;;;;;;1.33;66.44;98289.79;1696806;83;21010;-82
2022/02/08 16:12:47;;;;;;;17.02;5.17;;;;;;;1.26;66.78;98292.34;1726940;82;21015;-83
2022/02/08 16:18:01;;;;;;;10.93;3.12;;;;;;;1.13;66.58;98285.20;1701440;83;20124;-82
2022/02/08 16:20:44;;;;;;;;;;;;;;;1.08;66.71;98287.73;1738418;82;21011;-82
2022/02/08 16:23:33;;;;;;;6.53;2.87;;;;;;;1.02;66.85;98299.40;1708660;82;20130;-82
2022/02/08 16:26:05;;;;;;;10.63;3.10;;;;;;;0.97;66.74;98301.95;1683826;85;21032;-81
2022/02/08 16:28:47;;;;;;;6.83;2.80;;;;;;;0.92;66.79;98306.23;1703676;83;20993;-81
2022/02/08 16:33:57;;;;;;;8.68;3.37;;;;;;;0.85;66.84;98306.58;1719159;83;21025;-83
2022/02/08 16:52:47;;;;;;;;;;;;;;;0.51;67.35;98309.53;1723045;83;21084;-82
2022/02/08 16:57:58;;;;;;;5.65;2.52;;;;;;;0.35;67.61;98318.86;1727651;82;20972;-81
2022/02/08 17:00:18;;;;;;;9.65;3.12;;;;;;;0.29;67.93;98307.45;1728655;82;20958;-82
2022/02/08 17:02:47;;;;;;;7.40;3.08;;;;;;;0.23;68.18;98308.20;1711863;83;21047;-82
2022/02/08 17:05:08;;;;;;;8.00;2.90;;;;;;;0.23;67.98;98305.19;1700805;83;21006;-83
2022/02/08 17:07:39;;;;;;;6.30;3.10;;;;;;;0.25;67.89;98311.30;1709978;83;21009;-82
2022/02/08 17:10:07;;;;;;;9.78;3.70;;;;;;;0.26;67.75;98317.39;1714729;82;20988;-82
2022/02/08 17:12:54;;;;;;;7.08;3.70;;;;;;;0.28;67.66;98312.22;1712869;83;21081;-82
2022/02/08 17:38:23;;;;;;;13.65;5.83;;;;;;;0.07;68.06;98311.86;1712493;82;21354;-83
2022/02/08 17:47:50;;;;;;;14.07;6.35;;;;;;;-0.09;68.76;98316.36;1699032;83;21394;-82
2022/02/08 17:50:19;;;;;;;11.80;5.03;;;;;;;-0.17;69.83;98314.47;1683696;85;20977;-83
2022/02/08 17:52:48;;;;;;;15.43;6.00;;;;;;;-0.21;69.62;98325.67;1653979;85;21457;-84
2022/02/08 17:55:17;;;;;;;9.60;5.83;;;;;;;-0.25;69.96;98318.64;1713703;83;21353;-83
2022/02/08 17:57:44;;;;;;;9.43;5.85;;;;;;;-0.28;70.74;98327.72;1720922;83;21401;-84
2022/02/08 18:00:13;;;;;;;17.80;6.33;;;;;;;-0.28;70.08;98320.77;1726903;82;21057;-82
2022/02/08 18:02:43;;;;;;;15.55;6.72;;;;;;;-0.27;70.07;98315.15;1724783;82;20970;-82
2022/02/08 18:05:12;;;;;;;17.00;6.03;;;;;;;-0.28;69.93;98319.47;1721721;82;21379;-81
2022/02/08 18:07:39;;;;;;;14.90;5.90;;;;;;;-0.31;70.10;98309.01;1699781;82;21461;-81
2022/02/08 18:10:09;;;;;;;13.75;5.40;;;;;;;-0.33;70.12;98300.27;1709302;83;20988;-83
2022/02/08 18:12:39;;;;;;;14.85;5.55;;;;;;;-0.38;70.46;98303.66;1724977;83;20960;-82
2022/02/08 18:15:11;;;;;;;18.48;7.65;;;;;;;-0.44;70.49;98304.41;1714814;83;20924;-81
2022/02/08 18:17:40;;;;;;;14.20;7.10;;;;;;;-0.45;71.13;98315.23;1745547;82;21043;-81
2022/02/08 18:20:20;;;;;;;19.82;7.10;;;;;;;-0.42;70.98;98319.63;1695272;83;21026;-81
2022/02/08 18:51:21;;;;;;;19.07;8.98;;;;;;;-0.12;70.98;98296.33;1736301;82;20930;-82